createdAt,value
2023-05-25T00:01:07.923Z,16.20
2023-05-25T00:03:40.500Z,16.10
2023-05-25T00:06:10.439Z,16.10
2023-05-25T00:08:40.492Z,16.00
2023-05-25T00:11:09.656Z,16.10
2023-05-25T00:13:39.655Z,16.00
2023-05-25T00:16:08.833Z,16.00
2023-05-25T00:18:38.057Z,16.00
2023-05-25T00:21:07.407Z,16.10
2023-05-25T00:23:36.542Z,16.10
2023-05-25T00:26:05.793Z,16.10
2023-05-25T00:28:34.901Z,16.00
2023-05-25T00:31:04.090Z,16.10
2023-05-25T00:33:33.195Z,16.00
2023-05-25T00:36:03.468Z,16.00
2023-05-25T00:38:32.773Z,16.00
2023-05-25T00:41:01.937Z,16.00
2023-05-25T00:43:31.131Z,16.00
2023-05-25T00:46:02.406Z,16.10
2023-05-25T00:48:31.997Z,16.10
2023-05-25T00:51:01.743Z,16.00
2023-05-25T00:53:33.865Z,16.00
2023-05-25T00:56:10.988Z,16.00
2023-05-25T00:58:43.507Z,16.00
2023-05-25T01:01:15.282Z,16.00
2023-05-25T01:03:54.161Z,16.00
2023-05-25T01:06:23.766Z,16.00
2023-05-25T01:09:00.396Z,16.00
2023-05-25T01:11:36.305Z,16.00
2023-05-25T01:14:06.344Z,16.00
2023-05-25T01:16:37.851Z,16.00
2023-05-25T01:19:07.095Z,16.00
2023-05-25T01:21:38.079Z,16.00
2023-05-25T01:24:17.686Z,16.00
2023-05-25T01:26:53.150Z,15.90
2023-05-25T01:29:25.071Z,15.90
2023-05-25T01:31:56.319Z,15.80
2023-05-25T01:34:26.863Z,15.80
2023-05-25T01:36:56.719Z,15.70
2023-05-25T01:39:26.132Z,15.70
2023-05-25T01:41:55.285Z,15.70
2023-05-25T01:44:26.204Z,15.80
2023-05-25T01:47:04.056Z,15.80
2023-05-25T01:49:58.574Z,15.80
2023-05-25T01:52:34.349Z,15.70
2023-05-25T01:55:08.108Z,15.80
2023-05-25T01:57:42.829Z,15.80
2023-05-25T02:00:16.355Z,15.80
2023-05-25T02:02:47.242Z,15.80
2023-05-25T02:05:18.976Z,15.70
2023-05-25T02:07:48.155Z,15.70
2023-05-25T02:10:17.335Z,15.70
2023-05-25T02:12:46.756Z,15.70
2023-05-25T02:15:16.624Z,15.60
2023-05-25T02:17:45.823Z,15.50
2023-05-25T02:20:36.948Z,15.40
2023-05-25T02:23:06.326Z,15.30
2023-05-25T02:25:35.489Z,15.20
2023-05-25T02:28:05.137Z,15.20
2023-05-25T02:30:34.675Z,15.20
2023-05-25T02:33:03.830Z,15.10
2023-05-25T02:35:33.513Z,15.00
2023-05-25T02:38:03.085Z,15.00
2023-05-25T02:40:32.289Z,14.90
2023-05-25T02:43:01.417Z,14.80
2023-05-25T02:45:31.042Z,14.80
2023-05-25T02:48:00.243Z,14.70
2023-05-25T02:50:30.453Z,14.70
2023-05-25T02:53:03.426Z,14.60
2023-05-25T02:55:33.360Z,14.50
2023-05-25T02:58:02.915Z,14.40
2023-05-25T03:00:50.850Z,14.40
2023-05-25T03:03:20.450Z,14.40
2023-05-25T03:05:49.642Z,14.40
2023-05-25T03:08:19.386Z,14.50
2023-05-25T03:10:48.588Z,14.60
2023-05-25T03:13:18.972Z,14.60
2023-05-25T03:15:48.146Z,14.70
2023-05-25T03:18:18.061Z,14.70
2023-05-25T03:20:47.839Z,14.80
2023-05-25T03:23:17.017Z,14.90
2023-05-25T03:25:46.821Z,14.90
2023-05-25T03:28:16.346Z,14.80
2023-05-25T03:30:46.195Z,14.80
2023-05-25T03:33:15.724Z,14.70
2023-05-25T03:35:48.937Z,14.70
2023-05-25T03:38:18.151Z,14.70
2023-05-25T03:40:47.952Z,14.80
2023-05-25T03:43:18.107Z,14.80
2023-05-25T03:45:49.974Z,14.90
2023-05-25T03:48:19.300Z,14.80
2023-05-25T03:50:49.208Z,14.80
2023-05-25T03:53:18.348Z,14.80
2023-05-25T03:55:47.542Z,14.80
2023-05-25T03:58:18.445Z,14.80
2023-05-25T04:00:52.633Z,15.00
2023-05-25T04:03:22.146Z,15.10
2023-05-25T04:05:51.359Z,15.20
2023-05-25T04:08:20.477Z,15.30
2023-05-25T04:10:49.502Z,15.30
2023-05-25T04:13:18.558Z,15.20
2023-05-25T04:15:47.758Z,15.20
2023-05-25T04:18:20.772Z,15.20
2023-05-25T04:20:50.952Z,15.10
2023-05-25T04:23:23.493Z,15.00
2023-05-25T04:25:54.923Z,14.90
2023-05-25T04:28:24.676Z,14.80
2023-05-25T04:31:12.922Z,14.70
2023-05-25T04:34:05.221Z,14.70
2023-05-25T04:36:43.300Z,14.70
2023-05-25T04:39:13.776Z,14.70
2023-05-25T04:41:48.550Z,14.90
2023-05-25T04:44:17.841Z,15.00
2023-05-25T04:46:50.610Z,15.10
2023-05-25T04:49:25.088Z,15.30
2023-05-25T04:51:54.595Z,15.50
2023-05-25T04:54:23.821Z,15.70
2023-05-25T04:56:53.327Z,16.00
2023-05-25T04:59:22.713Z,16.10
2023-05-25T05:01:51.932Z,16.00
2023-05-25T05:04:21.192Z,16.10
2023-05-25T05:06:51.502Z,16.30
2023-05-25T05:09:22.962Z,16.60
2023-05-25T05:11:52.133Z,17.00
2023-05-25T05:14:21.506Z,17.20
2023-05-25T05:16:51.531Z,17.40
2023-05-25T05:19:21.012Z,17.40
2023-05-25T05:21:50.172Z,17.40
2023-05-25T05:24:20.075Z,17.50
2023-05-25T05:29:28.272Z,17.80
2023-05-25T05:31:57.585Z,17.90
2023-05-25T05:34:27.594Z,18.10
2023-05-25T05:39:17.965Z,18.20
2023-05-25T05:41:47.729Z,18.20
2023-05-25T05:44:16.955Z,18.30
2023-05-25T05:46:46.242Z,18.30
2023-05-25T05:49:15.517Z,18.30
2023-05-25T05:51:44.835Z,18.30
2023-05-25T05:54:14.014Z,18.10
2023-05-25T05:56:43.174Z,18.10
2023-05-25T05:59:12.343Z,18.20
2023-05-25T06:01:42.722Z,18.30
2023-05-25T06:04:12.237Z,18.40
2023-05-25T06:06:43.131Z,18.20
2023-05-25T06:09:12.764Z,18.20
2023-05-25T06:11:42.259Z,18.40
2023-05-25T06:14:12.224Z,18.60
2023-05-25T06:16:43.830Z,18.60
2023-05-25T06:19:14.583Z,18.70
2023-05-25T06:21:44.416Z,18.80
2023-05-25T06:24:15.288Z,18.80
2023-05-25T06:26:44.420Z,18.90
2023-05-25T06:29:16.683Z,18.90
2023-05-25T06:31:46.249Z,18.90
2023-05-25T06:34:15.540Z,18.80
2023-05-25T06:36:45.027Z,18.90
2023-05-25T06:39:15.460Z,18.80
2023-05-25T06:41:45.437Z,18.90
2023-05-25T06:44:19.021Z,19.00
2023-05-25T06:46:49.462Z,19.00
2023-05-25T06:49:18.714Z,19.10
2023-05-25T06:51:49.055Z,19.20
2023-05-25T06:54:19.665Z,19.20
2023-05-25T06:56:48.889Z,19.40
2023-05-25T06:59:18.487Z,19.50
2023-05-25T07:01:47.777Z,19.50
2023-05-25T07:04:17.021Z,19.50
2023-05-25T07:06:46.241Z,19.50
2023-05-25T07:09:15.980Z,19.60
2023-05-25T07:11:45.421Z,19.70
2023-05-25T07:14:14.534Z,19.70
2023-05-25T07:16:45.239Z,19.80
2023-05-25T07:19:14.646Z,19.90
2023-05-25T07:21:43.939Z,19.90
2023-05-25T07:24:13.096Z,19.90
2023-05-25T07:26:44.505Z,20.10
2023-05-25T07:29:13.682Z,20.20
2023-05-25T07:31:43.020Z,20.30
2023-05-25T07:34:12.144Z,20.20
2023-05-25T07:36:41.311Z,20.30
2023-05-25T07:39:11.402Z,20.50
2023-05-25T07:41:40.606Z,20.60
2023-05-25T07:44:09.785Z,20.70
2023-05-25T07:46:39.062Z,20.80
2023-05-25T07:49:13.129Z,20.90
2023-05-25T07:51:44.838Z,21.00
2023-05-25T07:54:14.023Z,21.00
2023-05-25T07:56:43.177Z,21.20
2023-05-25T07:59:12.708Z,21.20
2023-05-25T08:01:41.867Z,21.20
2023-05-25T08:04:11.160Z,21.30
2023-05-25T08:06:40.321Z,21.40
2023-05-25T08:09:09.500Z,21.40
2023-05-25T08:11:40.108Z,21.60
2023-05-25T08:14:09.213Z,21.70
2023-05-25T08:16:38.382Z,21.70
2023-05-25T08:19:07.557Z,21.80
2023-05-25T08:21:37.723Z,21.90
2023-05-25T08:24:08.472Z,21.90
2023-05-25T08:26:53.039Z,22.10
2023-05-25T08:29:23.733Z,22.10
2023-05-25T08:31:52.916Z,22.10
2023-05-25T08:34:22.100Z,22.10
2023-05-25T08:36:51.214Z,22.20
2023-05-25T08:39:20.355Z,22.20
2023-05-25T08:41:50.493Z,22.30
2023-05-25T08:44:19.680Z,22.40
2023-05-25T08:46:49.789Z,22.50
2023-05-25T08:49:19.015Z,22.60
2023-05-25T08:51:53.570Z,22.70
2023-05-25T08:54:30.242Z,22.70
2023-05-25T08:57:08.164Z,22.80
2023-05-25T08:59:47.680Z,22.70
2023-05-25T09:02:34.887Z,22.90
2023-05-25T09:05:04.778Z,23.10
2023-05-25T09:07:34.976Z,23.20
2023-05-25T09:10:05.180Z,23.30
2023-05-25T09:12:36.263Z,23.30
2023-05-25T09:15:06.266Z,23.30
2023-05-25T09:17:38.093Z,23.40
2023-05-25T09:20:10.526Z,23.50
2023-05-25T09:22:41.347Z,23.60
2023-05-25T09:25:11.580Z,23.70
2023-05-25T09:27:42.092Z,23.90
2023-05-25T09:30:12.232Z,23.90
2023-05-25T09:32:42.042Z,23.90
2023-05-25T09:35:13.159Z,24.00
2023-05-25T09:37:43.819Z,24.10
2023-05-25T09:40:15.351Z,24.10
2023-05-25T09:42:45.311Z,24.20
2023-05-25T09:45:14.424Z,24.30
2023-05-25T09:47:43.791Z,24.40
2023-05-25T09:50:13.022Z,24.50
2023-05-25T09:52:42.390Z,24.60
2023-05-25T09:55:12.665Z,24.70
2023-05-25T09:57:43.342Z,24.70
2023-05-25T10:00:13.061Z,24.80
2023-05-25T10:02:43.326Z,24.70
2023-05-25T10:05:12.618Z,24.70
2023-05-25T10:07:42.986Z,24.70
2023-05-25T10:10:18.387Z,24.90
2023-05-25T10:12:52.844Z,25.00
2023-05-25T10:15:22.938Z,25.20
2023-05-25T10:17:56.468Z,25.20
2023-05-25T10:20:28.293Z,25.30
2023-05-25T10:23:08.586Z,25.30
2023-05-25T10:25:45.235Z,25.40
2023-05-25T10:28:22.874Z,25.50
2023-05-25T10:30:53.642Z,25.60
2023-05-25T10:33:23.069Z,25.60
2023-05-25T10:36:03.098Z,25.60
2023-05-25T10:38:40.659Z,25.70
2023-05-25T10:41:11.359Z,25.70
2023-05-25T10:43:41.304Z,25.80
2023-05-25T10:46:10.959Z,25.80
2023-05-25T10:48:46.250Z,25.80
2023-05-25T10:51:15.777Z,25.90
2023-05-25T10:53:46.500Z,25.90
2023-05-25T10:56:15.990Z,26.00
2023-05-25T10:58:46.560Z,26.10
2023-05-25T11:01:16.349Z,26.20
2023-05-25T11:04:11.271Z,26.30
2023-05-25T11:06:40.593Z,26.40
2023-05-25T11:09:24.736Z,26.50
2023-05-25T11:11:55.662Z,26.60
2023-05-25T11:14:30.135Z,26.60
2023-05-25T11:17:12.183Z,26.60
2023-05-25T11:19:41.326Z,26.70
2023-05-25T11:22:20.559Z,26.80
2023-05-25T11:24:51.065Z,26.80
2023-05-25T11:27:24.626Z,26.90
2023-05-25T11:29:56.547Z,27.00
2023-05-25T11:32:26.990Z,27.20
2023-05-25T11:34:58.525Z,27.20
2023-05-25T11:37:33.648Z,27.20
2023-05-25T11:40:07.145Z,27.00
2023-05-25T11:42:38.330Z,27.10
2023-05-25T11:45:11.585Z,27.00
2023-05-25T11:47:41.389Z,27.00
2023-05-25T11:50:17.347Z,27.00
2023-05-25T11:52:46.529Z,27.10
2023-05-25T11:55:15.805Z,27.20
2023-05-25T11:57:45.206Z,27.30
2023-05-25T12:00:25.184Z,27.40
2023-05-25T12:02:56.360Z,27.40
2023-05-25T12:05:25.885Z,27.50
2023-05-25T12:07:55.066Z,27.60
2023-05-25T12:10:24.224Z,27.60
2023-05-25T12:12:58.229Z,27.70
2023-05-25T12:15:30.728Z,27.70
2023-05-25T12:18:00.199Z,27.70
2023-05-25T12:20:29.442Z,27.80
2023-05-25T12:22:58.681Z,27.80
2023-05-25T12:25:38.588Z,27.90
2023-05-25T12:28:16.289Z,27.90
2023-05-25T12:30:45.903Z,28.70
2023-05-25T12:33:15.718Z,32.10
2023-05-25T12:35:49.742Z,35.80
2023-05-25T12:38:21.601Z,38.50
2023-05-25T12:41:07.397Z,40.40
2023-05-25T12:43:43.029Z,40.40
2023-05-25T12:46:23.602Z,40.20
2023-05-25T12:48:52.853Z,42.10
2023-05-25T12:51:22.028Z,44.60
2023-05-25T12:53:51.807Z,46.70
2023-05-25T12:56:22.591Z,48.20
2023-05-25T12:58:51.797Z,47.60
2023-05-25T13:01:21.047Z,47.80
2023-05-25T13:03:50.226Z,49.90
2023-05-25T13:06:19.405Z,51.40
2023-05-25T13:08:49.267Z,51.40
2023-05-25T13:11:18.366Z,53.20
2023-05-25T13:13:47.483Z,54.70
2023-05-25T13:16:16.676Z,56.50
2023-05-25T13:18:45.855Z,57.90
2023-05-25T13:21:15.025Z,56.40
2023-05-25T13:23:44.398Z,50.00
2023-05-25T13:26:13.507Z,44.70
2023-05-25T13:28:42.677Z,45.60
2023-05-25T13:31:11.877Z,50.20
2023-05-25T13:33:41.035Z,52.40
2023-05-25T13:36:10.304Z,52.40
2023-05-25T13:38:39.394Z,54.90
2023-05-25T13:41:08.785Z,56.30
2023-05-25T13:43:38.637Z,57.70
2023-05-25T13:46:11.557Z,57.30
2023-05-25T13:48:48.409Z,56.50
2023-05-25T13:51:18.438Z,56.50
2023-05-25T13:53:49.016Z,55.00
2023-05-25T13:56:18.169Z,52.70
2023-05-25T13:58:47.316Z,50.80
2023-05-25T14:01:16.560Z,47.10
2023-05-25T14:03:46.523Z,43.40
2023-05-25T14:06:15.905Z,40.80
2023-05-25T14:08:44.997Z,38.80
2023-05-25T14:11:14.104Z,37.20
2023-05-25T14:13:43.205Z,36.30
2023-05-25T14:16:12.396Z,35.90
2023-05-25T14:18:41.652Z,37.70
2023-05-25T14:21:13.032Z,43.60
2023-05-25T14:23:42.193Z,47.60
2023-05-25T14:26:11.369Z,49.20
2023-05-25T14:28:40.661Z,49.50
2023-05-25T14:31:10.167Z,45.90
2023-05-25T14:33:40.757Z,42.90
2023-05-25T14:36:11.587Z,42.30
2023-05-25T14:38:40.775Z,41.00
2023-05-25T14:41:09.844Z,39.20
2023-05-25T14:43:38.941Z,38.40
2023-05-25T14:46:08.787Z,38.90
2023-05-25T14:48:37.936Z,37.50
2023-05-25T14:51:07.128Z,35.90
2023-05-25T14:53:36.328Z,34.60
2023-05-25T14:56:05.775Z,33.10
2023-05-25T14:58:35.116Z,31.70
2023-05-25T15:01:05.104Z,30.50
2023-05-25T15:03:34.439Z,29.30
2023-05-25T15:06:03.709Z,28.00
2023-05-25T15:08:32.869Z,26.40
2023-05-25T15:11:01.931Z,24.30
2023-05-25T15:13:31.173Z,23.00
2023-05-25T15:16:00.510Z,22.50
2023-05-25T15:18:29.668Z,22.50
2023-05-25T15:20:59.310Z,22.40
2023-05-25T15:23:28.575Z,22.40
2023-05-25T15:25:57.750Z,22.50
2023-05-25T15:28:27.001Z,22.30
2023-05-25T15:30:56.306Z,22.50
2023-05-25T15:33:35.719Z,26.60
2023-05-25T15:36:13.255Z,30.30
2023-05-25T15:38:48.917Z,29.40
2023-05-25T15:41:18.605Z,28.30
2023-05-25T15:43:54.604Z,27.50
2023-05-25T15:46:24.740Z,27.20
2023-05-25T15:48:54.339Z,27.20
2023-05-25T15:51:23.481Z,28.10
2023-05-25T15:53:54.776Z,28.20
2023-05-25T15:56:24.083Z,27.90
2023-05-25T15:58:53.417Z,27.90
2023-05-25T16:01:22.674Z,30.00
2023-05-25T16:03:51.856Z,35.40
2023-05-25T16:06:21.029Z,39.10
2023-05-25T16:08:50.224Z,41.60
2023-05-25T16:11:19.583Z,43.00
2023-05-25T16:13:48.747Z,43.80
2023-05-25T16:16:19.360Z,44.00
2023-05-25T16:18:48.593Z,43.90
2023-05-25T16:21:17.740Z,43.40
2023-05-25T16:23:46.918Z,43.80
2023-05-25T16:26:16.336Z,44.40
2023-05-25T16:28:45.645Z,44.50
2023-05-25T16:31:15.824Z,44.50
2023-05-25T16:33:46.312Z,44.90
2023-05-25T16:36:15.634Z,45.30
2023-05-25T16:38:44.935Z,45.30
2023-05-25T16:41:14.109Z,45.30
2023-05-25T16:43:43.349Z,45.50
2023-05-25T16:46:12.578Z,45.30
2023-05-25T16:48:41.704Z,44.60
2023-05-25T16:51:15.187Z,44.40
2023-05-25T16:53:45.295Z,42.10
2023-05-25T16:56:15.213Z,37.50
2023-05-25T16:58:44.439Z,34.30
2023-05-25T17:01:13.560Z,32.10
2023-05-25T17:03:42.942Z,30.60
2023-05-25T17:06:12.140Z,29.40
2023-05-25T17:08:41.187Z,28.40
2023-05-25T17:11:10.790Z,27.70
2023-05-25T17:13:39.942Z,26.90
2023-05-25T17:16:10.098Z,26.10
2023-05-25T17:18:39.317Z,25.40
2023-05-25T17:21:08.398Z,24.80
2023-05-25T17:23:37.516Z,24.40
2023-05-25T17:26:06.596Z,24.00
2023-05-25T17:28:36.044Z,23.60
2023-05-25T17:31:05.437Z,23.40
2023-05-25T17:33:34.568Z,23.20
2023-05-25T17:36:03.833Z,22.90
2023-05-25T17:38:35.083Z,22.60
2023-05-25T17:41:04.388Z,22.40
2023-05-25T17:43:33.464Z,22.20
2023-05-25T17:46:02.725Z,22.00
2023-05-25T17:48:31.885Z,21.80
2023-05-25T17:51:01.054Z,21.60
2023-05-25T17:53:30.199Z,21.40
2023-05-25T17:55:59.361Z,21.10
2023-05-25T17:58:28.493Z,20.90
2023-05-25T18:00:57.665Z,20.70
2023-05-25T18:03:26.996Z,20.50
2023-05-25T18:05:56.133Z,20.30
2023-05-25T18:08:25.375Z,20.10
2023-05-25T18:10:54.497Z,19.90
2023-05-25T18:13:23.739Z,19.70
2023-05-25T18:15:52.983Z,19.60
2023-05-25T18:18:24.769Z,19.40
2023-05-25T18:20:54.000Z,19.30
2023-05-25T18:23:23.371Z,19.10
2023-05-25T18:25:52.798Z,18.90
2023-05-25T18:28:23.504Z,18.80
2023-05-25T18:30:52.632Z,18.70
2023-05-25T18:33:21.822Z,18.50
2023-05-25T18:35:50.902Z,18.40
2023-05-25T18:38:20.044Z,18.30
2023-05-25T18:40:49.171Z,18.20
2023-05-25T18:43:18.308Z,18.10
2023-05-25T18:45:47.681Z,18.00
2023-05-25T18:48:19.042Z,17.90
2023-05-25T18:50:48.423Z,17.80
2023-05-25T18:53:17.605Z,17.70
2023-05-25T18:55:47.023Z,17.70
2023-05-25T18:58:16.296Z,17.60
2023-05-25T19:00:45.561Z,17.60
2023-05-25T19:03:14.973Z,17.50
2023-05-25T19:05:44.390Z,17.40
2023-05-25T19:08:13.620Z,17.40
2023-05-25T19:10:42.812Z,17.30
2023-05-25T19:13:11.961Z,17.30
2023-05-25T19:15:41.059Z,17.20
2023-05-25T19:18:10.384Z,17.10
2023-05-25T19:20:39.579Z,17.00
2023-05-25T19:23:08.900Z,17.00
2023-05-25T19:25:38.491Z,16.90
2023-05-25T19:28:07.583Z,16.90
2023-05-25T19:30:36.840Z,16.80
2023-05-25T19:33:06.053Z,16.70
2023-05-25T19:35:35.723Z,16.70
2023-05-25T19:38:05.008Z,16.60
2023-05-25T19:40:34.221Z,16.60
2023-05-25T19:43:03.337Z,16.60
2023-05-25T19:45:32.572Z,16.50
2023-05-25T19:48:02.042Z,16.40
2023-05-25T19:50:31.693Z,16.40
2023-05-25T19:53:01.288Z,16.40
2023-05-25T19:55:30.939Z,16.40
2023-05-25T19:58:00.128Z,16.30
2023-05-25T20:00:29.450Z,16.30
2023-05-25T20:02:58.785Z,16.30
2023-05-25T20:05:28.126Z,16.30
2023-05-25T20:07:57.383Z,16.30
2023-05-25T20:10:26.545Z,16.20
2023-05-25T20:12:55.772Z,16.30
2023-05-25T20:15:24.889Z,16.20
2023-05-25T20:17:54.026Z,16.20
2023-05-25T20:20:23.203Z,16.20
2023-05-25T20:22:52.335Z,16.10
2023-05-25T20:25:21.485Z,16.10
2023-05-25T20:27:50.592Z,16.00
2023-05-25T20:30:19.832Z,16.00
2023-05-25T20:32:49.319Z,16.00
2023-05-25T20:35:18.621Z,15.90
2023-05-25T20:37:47.871Z,15.90
2023-05-25T20:40:17.116Z,15.90
2023-05-25T20:42:47.103Z,15.90
2023-05-25T20:45:16.283Z,15.90
2023-05-25T20:47:45.629Z,15.80
2023-05-25T20:50:14.797Z,15.80
2023-05-25T20:52:43.911Z,15.80
2023-05-25T20:55:13.081Z,15.70
2023-05-25T20:57:42.142Z,15.70
2023-05-25T21:00:12.047Z,15.70
2023-05-25T21:02:41.416Z,15.70
2023-05-25T21:05:11.043Z,15.70
2023-05-25T21:07:40.143Z,15.70
2023-05-25T21:10:09.571Z,15.60
2023-05-25T21:12:38.764Z,15.50
2023-05-25T21:15:08.713Z,15.60
2023-05-25T21:17:37.863Z,15.50
2023-05-25T21:20:07.543Z,15.50
2023-05-25T21:22:37.398Z,15.50
2023-05-25T21:25:06.988Z,15.50
2023-05-25T21:27:36.137Z,15.50
2023-05-25T21:30:06.064Z,15.50
2023-05-25T21:32:35.932Z,15.40
2023-05-25T21:35:05.238Z,15.40
2023-05-25T21:37:34.900Z,15.40
2023-05-25T21:40:04.340Z,15.30
2023-05-25T21:42:33.469Z,15.30
2023-05-25T21:45:03.488Z,15.30
2023-05-25T21:47:33.703Z,15.30
2023-05-25T21:50:03.052Z,15.40
2023-05-25T21:52:32.565Z,15.50
2023-05-25T21:55:01.868Z,15.60
2023-05-25T21:57:32.595Z,15.70
2023-05-25T22:00:02.060Z,15.70
2023-05-25T22:02:42.023Z,15.80
2023-05-25T22:05:11.756Z,15.90
2023-05-25T22:07:41.814Z,16.00
2023-05-25T22:10:11.434Z,16.00
2023-05-25T22:12:40.660Z,16.00
2023-05-25T22:15:10.137Z,16.10
2023-05-25T22:17:39.365Z,16.10
2023-05-25T22:20:09.006Z,16.20
2023-05-25T22:22:38.211Z,16.20
2023-05-25T22:25:07.543Z,16.10
2023-05-25T22:27:37.005Z,16.10
2023-05-25T22:30:07.134Z,16.10
2023-05-25T22:32:36.534Z,16.00
2023-05-25T22:35:06.486Z,15.90
2023-05-25T22:37:35.645Z,15.90
2023-05-25T22:40:06.227Z,15.80
2023-05-25T22:42:35.446Z,15.80
2023-05-25T22:45:05.020Z,15.70
2023-05-25T22:47:34.221Z,15.70
2023-05-25T22:50:03.352Z,15.80
2023-05-25T22:52:32.912Z,15.80
2023-05-25T22:55:02.033Z,15.80
2023-05-25T22:57:32.735Z,15.80
2023-05-25T23:00:01.991Z,15.80
2023-05-25T23:02:32.722Z,15.90
2023-05-25T23:05:02.039Z,15.90
2023-05-25T23:07:32.794Z,15.90
2023-05-25T23:10:02.575Z,16.00
2023-05-25T23:12:32.962Z,16.10
2023-05-25T23:15:02.926Z,16.10
2023-05-25T23:17:33.129Z,16.20
2023-05-25T23:20:02.389Z,16.20
2023-05-25T23:22:32.271Z,16.30
2023-05-25T23:25:01.618Z,16.40
2023-05-25T23:27:31.844Z,16.40
2023-05-25T23:30:02.970Z,16.40
2023-05-25T23:32:33.059Z,16.40
2023-05-25T23:35:02.334Z,16.40
2023-05-25T23:37:32.864Z,16.40
2023-05-25T23:40:02.075Z,16.40
2023-05-25T23:42:37.828Z,16.40
2023-05-25T23:45:08.275Z,16.40
2023-05-25T23:47:37.387Z,16.30
2023-05-25T23:50:06.864Z,16.20
2023-05-25T23:52:36.062Z,16.20
2023-05-25T23:55:06.497Z,16.20
2023-05-25T23:57:36.650Z,16.10
